Time;durP1;ratioP1;P1;durP2;ratioP2;P2;SDS_P1;SDS_P2;PMS_P1;PMS_P2;Temp;Humidity;BMP_temperature;BMP_pressure;BME280_temperature;BME280_humidity;BME280_pressure;Samples;Min_cycle;Max_cycle;Signal;HPM_P1;HPM_P2
2023/05/20 00:00:21;;;;;;;9.18;7.03;;;11.70;1.00;;;;;;7368139;19;20147;-71
2023/05/20 00:02:51;;;;;;;11.43;7.50;;;11.70;1.00;;;;;;7369275;19;20382;-72
2023/05/20 00:05:21;;;;;;;10.40;7.90;;;11.70;1.00;;;;;;7367613;19;20024;-72
2023/05/20 00:07:51;;;;;;;10.02;7.30;;;11.70;1.00;;;;;;7392029;19;20038;-73
2023/05/20 00:10:21;;;;;;;10.32;7.05;;;11.80;1.00;;;;;;7366151;19;20498;-73
2023/05/20 00:12:51;;;;;;;13.35;7.43;;;11.80;1.00;;;;;;7368476;19;20074;-72
2023/05/20 00:15:24;;;;;;;9.75;7.22;;;11.70;1.00;;;;;;7369477;19;20006;-72
2023/05/20 00:17:53;;;;;;;9.65;7.05;;;11.70;1.00;;;;;;7369935;19;20006;-73
2023/05/20 00:20:24;;;;;;;10.05;6.75;;;11.70;1.00;;;;;;7367220;19;20022;-73
2023/05/20 00:22:54;;;;;;;13.82;7.82;;;11.70;1.00;;;;;;7389842;19;20023;-72
2023/05/20 00:25:24;;;;;;;12.15;7.18;;;11.70;1.00;;;;;;7368635;19;20014;-73
2023/05/20 00:27:54;;;;;;;10.48;7.20;;;11.70;1.00;;;;;;7369342;19;20014;-73
2023/05/20 00:30:26;;;;;;;7.78;6.50;;;11.70;1.00;;;;;;7366664;19;20018;-73
2023/05/20 00:32:56;;;;;;;9.25;6.80;;;11.70;1.00;;;;;;7367280;19;20026;-73
2023/05/20 00:35:26;;;;;;;15.77;8.18;;;11.70;1.00;;;;;;7368953;19;20581;-73
2023/05/20 00:37:56;;;;;;;10.90;7.30;;;11.70;1.00;;;;;;7389902;19;20018;-73
2023/05/20 00:40:26;;;;;;;10.50;6.35;;;11.70;1.00;;;;;;7367104;19;20015;-73
2023/05/20 00:42:56;;;;;;;9.35;7.22;;;11.80;1.00;;;;;;7365460;19;20451;-73
2023/05/20 00:45:29;;;;;;;9.02;6.53;;;11.80;1.00;;;;;;7368654;19;20019;-73
2023/05/20 00:48:01;;;;;;;8.95;6.15;;;11.80;1.00;;;;;;7369268;19;20018;-73
2023/05/20 00:50:31;;;;;;;10.20;7.50;;;11.80;1.00;;;;;;7368353;19;20023;-74
2023/05/20 00:53:01;;;;;;;10.73;6.70;;;11.80;1.00;;;;;;7388651;19;20358;-73
2023/05/20 00:55:31;;;;;;;11.40;7.93;;;11.80;1.00;;;;;;7369541;19;20019;-73
2023/05/20 00:58:01;;;;;;;12.00;6.82;;;11.80;1.00;;;;;;7369260;19;20082;-72
2023/05/20 01:00:34;;;;;;;7.35;5.63;;;11.80;1.00;;;;;;7369225;19;20015;-72
2023/05/20 01:03:04;;;;;;;9.27;6.50;;;12.00;1.00;;;;;;7369076;19;20466;-72
2023/05/20 01:05:34;;;;;;;12.68;6.57;;;12.00;1.00;;;;;;7368621;19;20072;-72
2023/05/20 01:08:06;;;;;;;8.00;5.85;;;12.00;1.00;;;;;;7389019;19;20014;-72
2023/05/20 01:10:40;;;;;;;10.05;5.65;;;12.10;1.00;;;;;;7374524;19;20021;-72
2023/05/20 01:13:16;;;;;;;8.48;5.13;;;12.10;1.00;;;;;;7398688;19;20007;-72
2023/05/20 01:15:50;;;;;;;6.78;5.28;;;12.10;1.00;;;;;;7403087;19;20020;-72
2023/05/20 01:18:21;;;;;;;8.48;5.70;;;12.10;1.00;;;;;;7396441;19;20002;-72
2023/05/20 01:21:00;;;;;;;11.55;5.53;;;12.10;1.00;;;;;;7370194;19;20027;-73
2023/05/20 01:23:39;;;;;;;6.93;5.15;;;12.10;1.00;;;;;;7366573;19;20476;-72
2023/05/20 01:26:12;;;;;;;12.95;6.78;;;12.10;1.00;;;;;;7391078;19;20020;-73
2023/05/20 01:28:45;;;;;;;9.63;6.30;;;12.10;1.00;;;;;;7368145;19;20014;-73
2023/05/20 01:31:20;;;;;;;6.95;5.22;;;12.20;1.00;;;;;;7366110;19;20040;-73
2023/05/20 01:33:56;;;;;;;11.27;5.60;;;12.20;1.00;;;;;;7367892;19;20015;-73
2023/05/20 01:36:30;;;;;;;8.15;5.30;;;12.20;1.00;;;;;;7367981;19;20014;-73
2023/05/20 01:39:05;;;;;;;7.57;5.18;;;12.20;1.00;;;;;;7365656;19;20031;-73
2023/05/20 01:41:37;;;;;;;7.45;5.68;;;12.20;1.00;;;;;;7363635;19;20374;-73
2023/05/20 01:44:07;;;;;;;10.20;5.68;;;12.10;1.00;;;;;;7387939;19;20025;-73
2023/05/20 01:46:37;;;;;;;7.25;5.45;;;12.10;1.00;;;;;;7368122;19;20019;-73
2023/05/20 01:49:07;;;;;;;6.45;5.65;;;12.10;1.00;;;;;;7365303;19;20530;-74
2023/05/20 01:51:37;;;;;;;8.00;5.50;;;12.10;1.00;;;;;;7366182;19;20010;-73
2023/05/20 01:54:09;;;;;;;7.65;5.72;;;12.10;1.00;;;;;;7365696;19;20090;-72
2023/05/20 01:56:39;;;;;;;8.05;5.55;;;12.10;1.00;;;;;;7367306;19;20022;-74
2023/05/20 01:59:09;;;;;;;8.73;5.70;;;12.10;1.00;;;;;;7387383;19;20022;-74
2023/05/20 02:01:39;;;;;;;6.97;5.30;;;12.10;1.00;;;;;;7365751;19;20010;-74
2023/05/20 02:04:09;;;;;;;7.55;5.40;;;12.10;1.00;;;;;;7364544;19;20048;-73
2023/05/20 02:06:39;;;;;;;7.65;5.80;;;12.10;1.00;;;;;;7367530;19;20027;-71
2023/05/20 02:09:12;;;;;;;7.07;5.05;;;12.10;1.00;;;;;;7365017;19;20014;-72
2023/05/20 02:11:42;;;;;;;7.50;5.95;;;12.00;1.00;;;;;;7365535;19;20015;-73
2023/05/20 02:14:11;;;;;;;9.35;5.93;;;12.00;1.00;;;;;;7374961;19;20015;-74
2023/05/20 02:16:41;;;;;;;10.63;5.38;;;12.00;1.00;;;;;;7388837;19;20077;-73
2023/05/20 02:19:12;;;;;;;9.63;6.97;;;12.00;1.00;;;;;;7367850;19;20014;-74
2023/05/20 02:21:44;;;;;;;7.53;5.38;;;11.90;1.00;;;;;;7372871;19;20027;-74
2023/05/20 02:24:17;;;;;;;7.07;5.43;;;11.90;1.00;;;;;;7372173;19;20086;-73
2023/05/20 02:26:49;;;;;;;9.27;5.05;;;11.80;1.00;;;;;;7374483;19;20011;-73
2023/05/20 02:29:20;;;;;;;8.63;5.90;;;11.80;1.00;;;;;;7372246;19;20026;-73
2023/05/20 02:31:50;;;;;;;7.93;5.60;;;11.80;1.00;;;;;;7392046;19;20014;-73
2023/05/20 02:34:22;;;;;;;6.82;5.13;;;11.80;1.00;;;;;;7371641;19;20179;-73
2023/05/20 02:36:53;;;;;;;6.43;5.00;;;11.80;1.10;;;;;;7371562;19;20014;-73
2023/05/20 02:39:27;;;;;;;7.95;5.57;;;11.80;1.50;;;;;;7370116;19;20486;-73
2023/05/20 02:41:57;;;;;;;8.43;5.60;;;11.80;1.50;;;;;;7370946;19;20070;-73
2023/05/20 02:44:27;;;;;;;6.30;5.20;;;11.80;1.50;;;;;;7370486;19;20029;-73
2023/05/20 02:46:57;;;;;;;7.38;5.90;;;11.80;1.50;;;;;;7394133;19;20091;-73
2023/05/20 02:49:27;;;;;;;7.38;5.75;;;11.80;1.50;;;;;;7370331;19;20010;-73
2023/05/20 02:51:57;;;;;;;9.70;6.00;;;11.80;1.70;;;;;;7369564;19;20063;-73
2023/05/20 02:54:29;;;;;;;6.50;5.72;;;11.80;1.60;;;;;;7372452;19;20479;-73
2023/05/20 02:56:59;;;;;;;7.00;5.38;;;11.80;1.50;;;;;;7371930;19;20011;-72
2023/05/20 02:59:29;;;;;;;6.68;5.28;;;11.80;1.60;;;;;;7370916;19;20018;-73
2023/05/20 03:01:59;;;;;;;6.35;4.97;;;11.80;1.60;;;;;;7392366;19;20070;-72
2023/05/20 03:04:30;;;;;;;6.50;5.20;;;11.80;1.50;;;;;;7371309;19;20015;-73
2023/05/20 03:07:00;;;;;;;6.07;5.47;;;11.90;2.20;;;;;;7371116;19;20019;-73
2023/05/20 03:09:33;;;;;;;8.43;5.50;;;11.80;2.00;;;;;;7369804;19;20014;-73
2023/05/20 03:12:03;;;;;;;6.60;5.63;;;11.80;2.00;;;;;;7369092;19;20098;-73
2023/05/20 03:14:32;;;;;;;7.78;5.97;;;11.80;2.00;;;;;;7371175;19;20026;-73
2023/05/20 03:17:02;;;;;;;7.80;5.68;;;11.80;2.40;;;;;;7393717;19;20006;-72
2023/05/20 03:19:35;;;;;;;8.63;5.03;;;11.90;1.90;;;;;;7368621;19;20040;-73
2023/05/20 03:22:06;;;;;;;7.95;5.65;;;11.90;2.00;;;;;;7370085;19;20057;-73
2023/05/20 03:24:39;;;;;;;6.88;5.13;;;11.90;1.60;;;;;;7372259;19;20085;-73
2023/05/20 03:27:09;;;;;;;5.97;5.07;;;11.90;2.20;;;;;;7370421;19;20115;-73
2023/05/20 03:29:39;;;;;;;7.28;5.20;;;11.90;2.10;;;;;;7369069;19;20070;-73
2023/05/20 03:32:09;;;;;;;7.78;5.32;;;11.90;2.20;;;;;;7389138;19;20082;-73
2023/05/20 03:34:39;;;;;;;6.75;5.43;;;11.90;1.70;;;;;;7371180;19;20014;-73
2023/05/20 03:37:09;;;;;;;7.95;5.10;;;11.90;1.60;;;;;;7369872;19;20026;-73
2023/05/20 03:39:42;;;;;;;7.43;5.18;;;11.90;1.60;;;;;;7369348;19;20011;-73
2023/05/20 03:42:12;;;;;;;6.47;5.30;;;11.90;2.10;;;;;;7369147;19;20023;-73
2023/05/20 03:44:42;;;;;;;7.25;5.20;;;11.80;2.30;;;;;;7371975;19;20042;-73
2023/05/20 03:47:12;;;;;;;6.45;5.20;;;11.80;2.80;;;;;;7378753;19;20565;-73
2023/05/20 03:49:42;;;;;;;6.50;4.82;;;11.80;3.20;;;;;;7390511;19;20102;-73
2023/05/20 03:52:11;;;;;;;6.47;5.40;;;11.80;3.10;;;;;;7366336;19;20038;-73
2023/05/20 03:54:44;;;;;;;5.78;5.18;;;11.80;2.90;;;;;;7370219;19;20044;-73
2023/05/20 03:57:14;;;;;;;6.95;5.57;;;11.80;3.20;;;;;;7370069;19;20014;-72
2023/05/20 03:59:44;;;;;;;7.32;5.30;;;11.80;3.50;;;;;;7369901;19;20039;-73
2023/05/20 04:02:14;;;;;;;6.70;5.60;;;11.80;3.10;;;;;;7369120;19;20098;-73
2023/05/20 04:04:44;;;;;;;6.93;5.45;;;11.80;3.50;;;;;;7392790;19;20017;-73
2023/05/20 04:07:14;;;;;;;7.82;5.45;;;11.90;3.30;;;;;;7369077;19;20015;-73
2023/05/20 04:09:46;;;;;;;7.88;5.20;;;12.00;2.90;;;;;;7368213;19;20085;-73
2023/05/20 04:12:18;;;;;;;8.32;5.55;;;12.10;1.70;;;;;;7369311;19;20468;-74
2023/05/20 04:14:48;;;;;;;8.70;5.30;;;12.20;1.80;;;;;;7369876;19;20017;-73
2023/05/20 04:17:18;;;;;;;6.13;5.03;;;12.20;1.10;;;;;;7370523;19;20010;-73
2023/05/20 04:19:48;;;;;;;7.82;5.40;;;12.10;1.70;;;;;;7388676;19;20014;-73
2023/05/20 04:22:18;;;;;;;6.88;5.22;;;12.10;1.70;;;;;;7368751;19;20081;-73
2023/05/20 04:24:51;;;;;;;7.85;4.80;;;12.10;1.80;;;;;;7368437;19;20486;-73
2023/05/20 04:27:22;;;;;;;6.10;4.97;;;12.10;1.70;;;;;;7370263;19;20074;-73
2023/05/20 04:29:53;;;;;;;6.68;5.13;;;12.20;1.80;;;;;;7367314;19;20070;-73
2023/05/20 04:32:23;;;;;;;8.55;5.57;;;12.30;1.80;;;;;;7368113;19;20045;-72
2023/05/20 04:34:56;;;;;;;5.70;5.03;;;12.30;1.00;;;;;;7391805;19;20017;-72
2023/05/20 04:37:26;;;;;;;5.80;4.90;;;12.30;1.00;;;;;;7371401;19;20014;-73
2023/05/20 04:39:58;;;;;;;7.63;4.95;;;12.40;1.90;;;;;;7362507;19;20074;-72
2023/05/20 04:42:28;;;;;;;7.85;5.82;;;12.40;1.40;;;;;;7365600;19;20021;-72
2023/05/20 04:45:00;;;;;;;7.18;5.03;;;12.40;1.00;;;;;;7373814;19;20505;-73
2023/05/20 04:47:30;;;;;;;7.68;5.57;;;12.50;1.00;;;;;;7395540;19;20026;-72
2023/05/20 04:50:02;;;;;;;6.97;5.63;;;12.50;1.00;;;;;;7414025;19;20078;-73
2023/05/20 04:52:31;;;;;;;6.70;5.03;;;12.60;1.00;;;;;;7388618;19;20030;-72
2023/05/20 04:55:04;;;;;;;7.40;5.40;;;12.60;1.00;;;;;;7374244;19;20074;-72
2023/05/20 04:57:37;;;;;;;8.10;5.55;;;12.60;1.00;;;;;;7372316;19;20010;-72
2023/05/20 05:00:09;;;;;;;7.47;5.85;;;12.60;1.00;;;;;;7366554;19;20118;-71
2023/05/20 05:02:39;;;;;;;11.07;5.60;;;12.60;1.00;;;;;;7367634;19;20018;-72
2023/05/20 05:05:10;;;;;;;6.18;5.57;;;12.60;1.00;;;;;;7390204;19;20108;-72
2023/05/20 05:07:40;;;;;;;7.60;5.85;;;12.70;1.00;;;;;;7368653;19;20006;-71
2023/05/20 05:10:14;;;;;;;5.57;5.03;;;12.80;1.00;;;;;;7364472;19;20038;-72
2023/05/20 05:12:44;;;;;;;;;;;13.10;1.00;;;;;;7366879;19;20812;-72
2023/05/20 05:15:14;;;;;;;7.00;5.53;;;14.50;1.00;;;;;;7367766;19;19919;-72
2023/05/20 05:17:44;;;;;;;6.05;4.82;;;17.00;1.00;;;;;;7368777;19;20015;-73
2023/05/20 05:20:14;;;;;;;7.20;5.00;;;18.70;1.00;;;;;;7364495;19;20006;-72
2023/05/20 05:22:44;;;;;;;6.15;4.75;;;19.00;1.00;;;;;;7388446;19;20031;-73
2023/05/20 05:25:17;;;;;;;6.18;4.60;;;18.90;1.00;;;;;;7364878;19;20013;-72
2023/05/20 05:27:48;;;;;;;6.82;4.22;;;18.80;1.00;;;;;;7367154;19;20485;-73
2023/05/20 05:30:18;;;;;;;5.95;4.57;;;18.70;1.00;;;;;;7364283;19;20019;-73
2023/05/20 05:32:48;;;;;;;7.20;4.68;;;17.00;1.00;;;;;;7366886;19;20014;-73
2023/05/20 05:35:18;;;;;;;5.88;4.78;;;16.20;1.00;;;;;;7370997;19;20027;-73
2023/05/20 05:37:48;;;;;;;6.20;4.25;;;18.00;1.00;;;;;;7393461;19;20494;-74
2023/05/20 05:40:21;;;;;;;5.78;4.35;;;18.60;1.00;;;;;;7366949;19;20523;-73
2023/05/20 05:42:50;;;;;;;6.88;4.32;;;19.20;1.00;;;;;;7370327;19;20015;-73
2023/05/20 05:45:20;;;;;;;5.15;4.30;;;19.20;1.00;;;;;;7373459;19;20035;-73
2023/05/20 05:47:50;;;;;;;5.35;4.60;;;19.40;1.00;;;;;;7372557;19;20482;-73
2023/05/20 05:50:20;;;;;;;5.90;4.32;;;19.10;1.00;;;;;;7368201;19;20078;-73
2023/05/20 05:52:50;;;;;;;4.90;4.40;;;19.60;1.00;;;;;;7392373;19;20470;-72
2023/05/20 05:55:23;;;;;;;5.43;4.45;;;18.30;1.00;;;;;;7375322;19;20018;-73
2023/05/20 05:57:53;;;;;;;6.25;4.65;;;16.40;1.00;;;;;;7374427;19;20019;-73
2023/05/20 06:00:23;;;;;;;7.35;4.68;;;15.40;1.00;;;;;;7371128;19;20014;-72
2023/05/20 06:02:53;;;;;;;6.80;4.80;;;15.60;1.00;;;;;;7372243;19;20058;-73
2023/05/20 06:05:23;;;;;;;6.82;4.93;;;15.90;1.00;;;;;;7373421;19;20035;-73
2023/05/20 06:07:54;;;;;;;6.90;4.75;;;16.70;1.00;;;;;;7395716;19;20478;-74
2023/05/20 06:10:27;;;;;;;6.35;5.07;;;18.20;1.00;;;;;;7369629;19;20098;-73
2023/05/20 06:12:57;;;;;;;6.40;4.63;;;19.10;1.00;;;;;;7369485;19;20466;-74
2023/05/20 06:15:27;;;;;;;6.22;5.03;;;19.30;1.00;;;;;;7373366;19;20086;-75
2023/05/20 06:17:57;;;;;;;9.00;5.15;;;19.30;1.00;;;;;;7372796;19;20010;-74
2023/05/20 06:20:27;;;;;;;6.53;5.35;;;19.00;1.00;;;;;;7370637;19;20022;-74
2023/05/20 06:22:56;;;;;;;7.30;5.45;;;19.00;1.00;;;;;;7392316;19;20022;-74
2023/05/20 06:25:29;;;;;;;6.45;5.20;;;17.40;1.00;;;;;;7372244;19;20066;-73
2023/05/20 06:27:59;;;;;;;9.82;4.93;;;18.80;1.00;;;;;;7373299;19;20011;-73
2023/05/20 06:30:29;;;;;;;7.32;5.43;;;18.20;1.00;;;;;;7370974;19;20482;-74
2023/05/20 06:32:59;;;;;;;7.13;5.88;;;18.80;1.00;;;;;;7369511;19;20010;-74
2023/05/20 06:35:29;;;;;;;6.07;5.45;;;18.40;1.00;;;;;;7372319;19;20371;-74
2023/05/20 06:37:59;;;;;;;7.50;5.40;;;16.70;1.00;;;;;;7395204;19;20429;-74
2023/05/20 06:40:32;;;;;;;5.88;5.25;;;16.70;1.00;;;;;;7365846;19;20014;-73
2023/05/20 06:43:02;;;;;;;6.95;5.47;;;16.30;1.00;;;;;;7371028;19;20019;-73
2023/05/20 06:45:32;;;;;;;8.63;5.88;;;16.50;1.00;;;;;;7371631;19;20010;-73
2023/05/20 06:48:02;;;;;;;7.18;5.00;;;16.50;1.00;;;;;;7373560;19;20007;-74
2023/05/20 06:50:32;;;;;;;6.22;5.20;;;16.40;1.00;;;;;;7369988;19;20536;-74
2023/05/20 06:53:03;;;;;;;6.55;5.03;;;16.60;1.00;;;;;;7390671;19;20002;-73
2023/05/20 06:55:35;;;;;;;7.45;5.40;;;16.30;1.00;;;;;;7371363;19;20006;-73
2023/05/20 06:58:05;;;;;;;7.47;5.82;;;16.30;1.00;;;;;;7371734;19;20080;-72
2023/05/20 07:00:35;;;;;;;8.82;5.65;;;16.30;1.00;;;;;;7370322;19;20078;-72
2023/05/20 07:03:05;;;;;;;6.88;5.55;;;16.20;1.00;;;;;;7370450;19;20010;-73
2023/05/20 07:05:35;;;;;;;6.40;5.30;;;16.50;1.00;;;;;;7368820;19;20014;-73
2023/05/20 07:08:06;;;;;;;6.85;5.40;;;16.40;1.00;;;;;;7394808;19;20349;-73
2023/05/20 07:10:38;;;;;;;7.72;5.47;;;16.70;1.00;;;;;;7369036;19;20031;-73
2023/05/20 07:13:08;;;;;;;7.20;5.53;;;16.50;1.00;;;;;;7367623;19;20473;-73
2023/05/20 07:15:38;;;;;;;6.35;5.28;;;16.20;1.00;;;;;;7371754;19;20035;-73
2023/05/20 07:18:08;;;;;;;8.73;5.70;;;16.30;1.00;;;;;;7369888;19;20011;-73
2023/05/20 07:20:38;;;;;;;7.38;5.68;;;16.40;1.00;;;;;;7369340;19;20014;-73
2023/05/20 07:23:08;;;;;;;7.63;5.78;;;16.40;1.00;;;;;;7391404;19;20022;-72
2023/05/20 07:25:41;;;;;;;5.97;5.38;;;16.50;1.00;;;;;;7371145;19;20022;-74
2023/05/20 07:28:11;;;;;;;5.45;4.93;;;16.90;1.00;;;;;;7370728;19;20475;-73
2023/05/20 07:30:41;;;;;;;8.15;6.07;;;16.80;1.00;;;;;;7369365;19;20027;-74
2023/05/20 07:33:11;;;;;;;6.78;5.65;;;16.70;1.00;;;;;;7370172;19;20416;-73
2023/05/20 07:35:41;;;;;;;7.40;5.63;;;17.10;1.00;;;;;;7369783;19;20093;-74
2023/05/20 07:38:10;;;;;;;6.80;5.80;;;17.10;1.00;;;;;;7392780;19;20078;-74
2023/05/20 07:40:43;;;;;;;6.43;5.30;;;16.80;1.00;;;;;;7367855;19;20384;-74
2023/05/20 07:43:13;;;;;;;6.82;5.97;;;16.90;1.00;;;;;;7370116;19;20785;-74
2023/05/20 07:45:43;;;;;;;7.88;5.47;;;17.10;1.00;;;;;;7369772;19;20027;-74
2023/05/20 07:48:14;;;;;;;7.07;5.63;;;17.30;1.00;;;;;;7370754;19;20042;-74
2023/05/20 07:50:44;;;;;;;7.57;5.93;;;17.50;1.00;;;;;;7367812;19;20029;-73
2023/05/20 07:53:14;;;;;;;7.28;5.75;;;17.60;1.00;;;;;;7376513;19;20020;-73
2023/05/20 07:55:47;;;;;;;7.47;5.90;;;18.00;1.00;;;;;;7391873;19;20031;-73
2023/05/20 07:58:16;;;;;;;8.57;5.97;;;18.00;1.00;;;;;;7370559;19;20007;-74
2023/05/20 08:00:46;;;;;;;8.25;5.43;;;18.00;1.00;;;;;;7368496;19;20011;-73
2023/05/20 08:03:16;;;;;;;6.28;5.43;;;17.90;1.00;;;;;;7370571;19;20023;-73
2023/05/20 08:05:47;;;;;;;6.88;5.80;;;17.90;1.00;;;;;;7370498;19;20034;-73
2023/05/20 08:08:17;;;;;;;7.50;5.38;;;17.40;1.00;;;;;;7371422;19;20475;-73
2023/05/20 08:10:49;;;;;;;6.38;5.10;;;17.20;1.00;;;;;;7388674;19;20027;-73
2023/05/20 08:13:19;;;;;;;6.18;5.47;;;17.20;1.00;;;;;;7370875;19;20522;-73
2023/05/20 08:15:49;;;;;;;6.80;5.50;;;17.50;1.00;;;;;;7368837;19;20006;-74
2023/05/20 08:18:19;;;;;;;8.25;5.60;;;17.40;1.00;;;;;;7370094;19;20014;-73
2023/05/20 08:20:49;;;;;;;7.88;5.80;;;17.50;1.00;;;;;;7366852;19;20097;-73
2023/05/20 08:23:19;;;;;;;6.30;5.70;;;17.90;1.00;;;;;;7369028;19;20025;-73
2023/05/20 08:25:52;;;;;;;8.55;5.88;;;18.30;1.00;;;;;;7390427;19;20038;-74
2023/05/20 08:28:22;;;;;;;7.50;5.75;;;18.60;1.00;;;;;;7368725;19;20150;-73
2023/05/20 08:30:52;;;;;;;8.10;5.63;;;18.10;1.00;;;;;;7365854;19;20569;-73
2023/05/20 08:33:22;;;;;;;5.97;5.38;;;18.50;1.00;;;;;;7367392;19;20010;-74
2023/05/20 08:35:52;;;;;;;7.07;5.03;;;18.70;1.00;;;;;;7368950;19;20010;-74
2023/05/20 08:38:22;;;;;;;10.25;5.38;;;18.20;1.00;;;;;;7368615;19;20018;-73
2023/05/20 08:40:58;;;;;;;6.72;5.50;;;18.00;1.00;;;;;;7386948;19;20039;-74
2023/05/20 08:43:31;;;;;;;7.30;5.32;;;18.10;1.00;;;;;;7364798;19;20011;-73
2023/05/20 08:46:03;;;;;;;7.55;5.95;;;18.60;1.00;;;;;;7367707;19;20107;-73
2023/05/20 08:48:35;;;;;;;6.03;5.40;;;18.50;1.00;;;;;;7367897;19;20893;-74
2023/05/20 08:51:05;;;;;;;7.05;5.40;;;18.30;1.00;;;;;;7365064;19;20099;-74
2023/05/20 08:53:35;;;;;;;6.35;4.95;;;18.50;1.00;;;;;;7367628;19;20051;-74
2023/05/20 08:56:11;;;;;;;7.38;5.00;;;19.00;1.00;;;;;;7389711;19;20086;-74
2023/05/20 08:58:41;;;;;;;8.32;5.40;;;18.60;1.00;;;;;;7368335;19;20035;-74
2023/05/20 09:01:11;;;;;;;6.13;5.03;;;18.80;1.00;;;;;;7364142;19;20039;-74
2023/05/20 09:03:42;;;;;;;8.40;5.15;;;19.10;1.00;;;;;;7367858;19;20007;-74
2023/05/20 09:06:12;;;;;;;7.18;5.25;;;18.80;1.00;;;;;;7367870;19;20031;-74
2023/05/20 09:08:43;;;;;;;7.07;5.60;;;19.10;1.00;;;;;;7366208;19;20010;-73
2023/05/20 09:11:16;;;;;;;7.65;5.20;;;18.90;1.00;;;;;;7383851;19;20042;-72
2023/05/20 09:13:46;;;;;;;7.40;4.85;;;19.00;1.00;;;;;;7366113;19;20027;-72
2023/05/20 09:16:16;;;;;;;6.05;5.07;;;19.10;1.00;;;;;;7366355;19;20106;-74
2023/05/20 09:18:48;;;;;;;10.05;5.60;;;19.00;1.00;;;;;;7366815;19;20006;-73
2023/05/20 09:21:18;;;;;;;5.68;5.13;;;19.60;1.00;;;;;;7363313;19;20018;-74
2023/05/20 09:23:52;;;;;;;6.65;4.80;;;19.80;1.00;;;;;;7366627;19;20474;-74
2023/05/20 09:26:24;;;;;;;7.00;5.35;;;19.40;1.00;;;;;;7367756;19;20009;-74
2023/05/20 09:28:54;;;;;;;7.72;4.70;;;19.40;1.00;;;;;;7386909;19;20014;-74
2023/05/20 09:31:28;;;;;;;6.32;5.03;;;19.50;1.00;;;;;;7363224;19;20098;-73
2023/05/20 09:33:59;;;;;;;7.53;5.18;;;19.60;1.00;;;;;;7366300;19;20034;-73
2023/05/20 09:36:31;;;;;;;6.35;5.40;;;19.60;1.00;;;;;;7367469;19;20018;-74
2023/05/20 09:39:04;;;;;;;5.30;4.68;;;19.30;1.00;;;;;;7365590;19;20057;-74
2023/05/20 09:41:45;;;;;;;6.95;5.32;;;19.40;1.00;;;;;;7364933;19;20042;-73
2023/05/20 09:44:15;;;;;;;5.28;4.43;;;19.60;1.00;;;;;;7377624;19;20151;-73
2023/05/20 09:46:46;;;;;;;6.15;4.93;;;19.30;1.00;;;;;;7388101;19;20034;-74
2023/05/20 09:49:17;;;;;;;6.88;5.15;;;19.60;1.00;;;;;;7364182;19;20098;-74
2023/05/20 09:51:48;;;;;;;7.35;4.72;;;19.60;1.00;;;;;;7363779;19;20006;-73
2023/05/20 09:54:20;;;;;;;6.38;4.72;;;19.80;1.00;;;;;;7365747;19;20011;-73
2023/05/20 09:56:54;;;;;;;6.97;4.57;;;19.60;1.00;;;;;;7367748;19;20006;-73
2023/05/20 09:59:26;;;;;;;6.15;5.00;;;19.90;1.00;;;;;;7364726;19;20015;-74
2023/05/20 10:01:56;;;;;;;9.88;4.80;;;20.40;1.00;;;;;;7384019;19;20025;-74
2023/05/20 10:04:28;;;;;;;7.40;5.22;;;20.90;1.00;;;;;;7365178;19;20081;-74
2023/05/20 10:07:13;;;;;;;6.03;5.07;;;21.00;1.00;;;;;;7365776;19;20006;-73
2023/05/20 10:09:59;;;;;;;6.47;5.05;;;20.80;1.00;;;;;;7363277;19;20007;-73
2023/05/20 10:12:40;;;;;;;8.63;5.40;;;20.70;1.00;;;;;;7364768;19;20031;-74
2023/05/20 10:15:24;;;;;;;8.88;5.10;;;20.40;1.00;;;;;;7365339;19;20479;-74
2023/05/20 10:18:08;;;;;;;8.35;5.35;;;20.70;1.00;;;;;;7366902;19;20019;-74
2023/05/20 10:20:46;;;;;;;;;;;20.70;1.00;;;;;;7360362;19;20048;-73
2023/05/20 10:23:23;;;;;;;7.22;4.22;;;21.20;1.00;;;;;;7365893;19;19910;-71
2023/05/20 10:25:54;;;;;;;7.03;5.57;;;21.20;1.00;;;;;;7387723;19;20010;-72
2023/05/20 10:28:35;;;;;;;5.30;4.80;;;20.60;1.00;;;;;;7364247;19;20010;-73
2023/05/20 10:31:16;;;;;;;6.50;4.88;;;20.60;1.00;;;;;;7360363;19;20015;-74
2023/05/20 10:33:47;;;;;;;8.18;4.65;;;20.80;1.00;;;;;;7365281;19;20089;-74
2023/05/20 10:36:29;;;;;;;6.35;4.78;;;20.60;1.00;;;;;;7364263;19;20014;-74
2023/05/20 10:39:01;;;;;;;7.00;5.00;;;20.70;1.00;;;;;;7364221;19;20038;-73
2023/05/20 10:41:33;;;;;;;5.43;4.93;;;20.80;1.00;;;;;;7368796;19;20017;-72
2023/05/20 10:44:07;;;;;;;6.00;5.40;;;20.50;1.00;;;;;;7393293;19;20094;-73
2023/05/20 10:46:38;;;;;;;6.40;4.80;;;20.60;1.00;;;;;;7373163;19;20371;-73
2023/05/20 10:49:35;;;;;;;7.00;4.90;;;20.90;1.00;;;;;;7369685;19;20018;-74
2023/05/20 10:52:06;;;;;;;5.15;4.65;;;21.70;1.00;;;;;;7368229;19;20363;-74
2023/05/20 10:54:37;;;;;;;10.82;4.75;;;21.20;1.00;;;;;;7371864;19;20010;-74
2023/05/20 10:57:10;;;;;;;5.43;4.80;;;20.60;1.00;;;;;;7373058;19;20448;-74
2023/05/20 10:59:42;;;;;;;6.93;4.82;;;20.90;1.00;;;;;;7370456;19;20014;-73
2023/05/20 11:02:14;;;;;;;10.05;4.88;;;20.90;1.00;;;;;;7387736;19;20364;-73
2023/05/20 11:04:44;;;;;;;5.63;4.43;;;21.00;1.00;;;;;;7370417;19;20020;-74
2023/05/20 11:07:15;;;;;;;5.07;4.57;;;21.30;1.00;;;;;;7371546;19;20475;-74
2023/05/20 11:09:51;;;;;;;4.95;4.45;;;21.40;1.00;;;;;;7370511;19;20017;-74
2023/05/20 11:12:23;;;;;;;5.35;4.85;;;21.60;1.00;;;;;;7368458;19;20002;-74
2023/05/20 11:14:55;;;;;;;5.00;4.50;;;21.70;1.00;;;;;;7371423;19;20090;-73
2023/05/20 11:17:25;;;;;;;4.80;4.25;;;21.90;1.00;;;;;;7371625;19;20070;-74
2023/05/20 11:19:55;;;;;;;5.22;4.50;;;22.10;1.00;;;;;;7391925;19;20015;-73
2023/05/20 11:22:25;;;;;;;6.38;4.57;;;22.20;1.00;;;;;;7367638;19;20011;-73
2023/05/20 11:24:55;;;;;;;6.90;5.38;;;21.80;1.00;;;;;;7368747;19;20006;-72
2023/05/20 11:27:25;;;;;;;5.35;4.80;;;21.30;1.00;;;;;;7370630;19;20065;-74
2023/05/20 11:29:57;;;;;;;5.07;4.55;;;21.30;1.00;;;;;;7369977;19;20497;-72
2023/05/20 11:32:27;;;;;;;7.05;4.80;;;21.40;1.00;;;;;;7365617;19;20443;-74
2023/05/20 11:34:58;;;;;;;5.50;4.95;;;21.30;1.00;;;;;;7388751;19;20605;-73
2023/05/20 11:37:28;;;;;;;5.07;4.55;;;21.50;1.00;;;;;;7366808;19;20562;-75
2023/05/20 11:40:09;;;;;;;6.82;4.85;;;22.00;1.00;;;;;;7366244;19;20388;-74
2023/05/20 11:42:39;;;;;;;5.70;4.50;;;22.00;1.00;;;;;;7367491;19;20019;-74
2023/05/20 11:45:15;;;;;;;5.47;4.57;;;22.00;1.00;;;;;;7367768;19;20494;-74
2023/05/20 11:47:45;;;;;;;5.88;4.63;;;21.80;1.00;;;;;;7368860;19;20014;-74
2023/05/20 11:50:19;;;;;;;9.00;4.82;;;21.60;1.00;;;;;;7373741;19;20483;-74
2023/05/20 11:52:56;;;;;;;5.65;5.05;;;21.80;1.00;;;;;;7389034;19;20014;-74
2023/05/20 11:55:26;;;;;;;6.03;4.45;;;21.40;1.00;;;;;;7369067;19;20014;-74
2023/05/20 11:57:57;;;;;;;5.78;5.18;;;21.60;1.00;;;;;;7367783;19;20067;-73
2023/05/20 12:00:30;;;;;;;5.97;4.63;;;21.50;1.00;;;;;;7367417;19;20571;-73
2023/05/20 12:03:19;;;;;;;5.45;4.82;;;21.40;1.00;;;;;;7368887;19;20122;-73
2023/05/20 12:05:50;;;;;;;5.82;4.57;;;21.60;1.00;;;;;;7369610;19;20010;-72
2023/05/20 12:08:21;;;;;;;10.90;5.00;;;22.00;1.00;;;;;;7367255;19;20011;-72
2023/05/20 12:10:51;;;;;;;5.10;4.60;;;21.90;1.00;;;;;;7387337;19;20022;-72
2023/05/20 12:13:22;;;;;;;7.38;4.63;;;22.10;1.00;;;;;;7367208;19;20006;-73
2023/05/20 12:15:55;;;;;;;5.00;4.40;;;21.80;1.00;;;;;;7369009;19;20031;-73
2023/05/20 12:18:25;;;;;;;6.88;4.60;;;21.90;1.00;;;;;;7370121;19;20021;-74
2023/05/20 12:20:54;;;;;;;4.55;4.10;;;22.00;1.00;;;;;;7365666;19;20007;-73
2023/05/20 12:23:25;;;;;;;8.40;4.55;;;22.40;1.00;;;;;;7366978;19;20027;-72
2023/05/20 12:25:55;;;;;;;5.22;4.72;;;22.30;1.00;;;;;;7391696;19;20017;-74
2023/05/20 12:28:25;;;;;;;7.68;4.90;;;22.20;1.00;;;;;;7368516;19;20017;-72
2023/05/20 12:30:57;;;;;;;5.47;4.70;;;22.30;1.00;;;;;;7365122;19;20042;-73
2023/05/20 12:33:27;;;;;;;8.63;4.28;;;22.60;1.00;;;;;;7366890;19;20019;-73
2023/05/20 12:35:57;;;;;;;5.97;4.68;;;23.20;1.00;;;;;;7367951;19;20059;-73
2023/05/20 12:38:28;;;;;;;4.93;4.40;;;23.50;1.00;;;;;;7367657;19;20050;-73
2023/05/20 12:40:58;;;;;;;6.43;4.25;;;23.60;1.00;;;;;;7385345;19;20038;-72
2023/05/20 12:43:28;;;;;;;8.05;4.45;;;23.10;1.00;;;;;;7364932;19;20015;-73
2023/05/20 12:46:00;;;;;;;6.57;4.50;;;23.20;1.00;;;;;;7368289;19;20031;-74
2023/05/20 12:48:30;;;;;;;4.97;4.40;;;22.90;1.00;;;;;;7368516;19;20030;-74
2023/05/20 12:51:01;;;;;;;5.63;4.30;;;22.80;1.00;;;;;;7361903;19;20018;-74
2023/05/20 12:53:31;;;;;;;6.88;4.63;;;23.10;1.00;;;;;;7365181;19;20014;-74
2023/05/20 12:56:01;;;;;;;6.80;4.60;;;23.40;1.00;;;;;;7383553;19;20018;-74
2023/05/20 12:58:31;;;;;;;6.15;4.43;;;23.60;1.00;;;;;;7365854;19;20010;-74
2023/05/20 13:01:03;;;;;;;5.90;4.28;;;23.60;1.00;;;;;;7363344;19;20030;-75
2023/05/20 13:03:33;;;;;;;5.00;4.50;;;24.10;1.00;;;;;;7361740;19;20010;-73
2023/05/20 13:06:04;;;;;;;9.10;4.45;;;23.70;1.00;;;;;;7366575;19;20403;-73
2023/05/20 13:08:34;;;;;;;6.90;4.25;;;23.10;1.00;;;;;;7365919;19;21768;-73
2023/05/20 13:11:04;;;;;;;6.07;4.35;;;22.80;1.00;;;;;;7380318;19;20022;-74
2023/05/20 13:13:34;;;;;;;4.90;4.40;;;22.50;1.00;;;;;;7366554;19;20025;-73
2023/05/20 13:16:07;;;;;;;5.25;4.68;;;23.00;1.00;;;;;;7364415;19;20034;-74
2023/05/20 13:18:37;;;;;;;4.95;4.45;;;23.00;1.00;;;;;;7363693;19;20021;-73